Hakalau, HI (96710)

11:57 PM HST on May 25, 2015 (GMT -1000)
Honomu | | Change Station
CLOSE
Current Station
Personal Weather Station
Location: Honomu, HI
Elevation: 303 ft
Nearby Weather Stations

Elev 303 ft 19.87 °N, 155.11 °W | Updated 12 minutes ago

Overcast
Overcast
68.9 °F
Feels Like 68.9 °F
N
0.0
Wind Variable Wind from SSE
Gusts 1.0 mph

Today
High -- | Low -- °F
--% Chance of Precip.
Yesterday
High -- | Low -- °F
Precip. -- in
5:41 AM 6:53 PM
First Quarter, 56% visible
Pressure 29.96 in
Visibility 10.0 miles
Clouds Overcast 5500 ft
Dew Point 64 °F
Humidity 85%
Rainfall in
Snow Depth Not available.
UV 0 out of 12
Pollen Not available.
Air Quality Not available.
Flu Activity Local Activity
METAR PHTO 260953Z 25004KT 10SM OVC055 21/17 A2997 RMK AO2 SLP146 T02110167 402560200 $

More Conditions Fewer Conditions

Pressure 29.96 in
Visibility 10.0 miles
Clouds Overcast 5500 ft
Dew Point 64 °F
Humidity 85%
Rainfall in
Snow Depth Not available.
UV 0 out of 12
Pollen Not available.
Air Quality Not available.
Flu Activity Local Activity
METAR PHTO 260953Z 25004KT 10SM OVC055 21/17 A2997 RMK AO2 SLP146 T02110167 402560200 $

More Conditions Fewer Conditions

10-Day Weather Forecast

Almanac

Astronomy

May. 25, 2015 Rise Set
Actual Time
Civil Twilight
Nautical Twilight
Astronomical Twilight
Moon
Length of Visible Light
Length of Day
Tomorrow will be .
, % of the Moon is Illuminated

Today's Extremes

State Highs State Lows

Community

WunderPhotos

Upload Photos

1,824,302 photos uploaded!

WunderBlogs® & News

Nearby

Air Quality

  Air Quality AQ Index Pollutant
Not available.

Snow Depth

Station Depth Elevation

Earthquake Activity

City Distance Mag. Time & Date
Minimum magnitude displayed is 2.5.

Coastal Water Temperatures

Place Temperature

Stations

Nearby Weather Stations

Station Location Temp. Windchill Dew Point Humidity Wind Precip. Elev Updated Type